| time (UTC) | temp C | wind direction | speed KPH | gust KPH | rain 1hr cm | rain 24hr cm | rain mn cm | humidity % | barometer mb |
| 20260503034004 | 25 | 271 | 1.6 | 4.8 | 0.00 | 0.00 | 0.00 | 82 | 1012.1 |
| 20260503033505 | 25 | 290 | 1.6 | 4.8 | 0.00 | 0.00 | 0.00 | 82 | 1012.1 |
| 20260503033004 | 25 | 285 | 1.6 | 4.8 | 0.00 | 0.00 | 0.00 | 82 | 1011.9 |
| 20260503032504 | 25 | 293 | 1.6 | 4.8 | 0.00 | 0.00 | 0.00 | 81 | 1011.8 |
| 20260503032004 | 25 | 270 | 1.6 | 3.2 | 0.00 | 0.00 | 0.00 | 81 | 1011.7 |
| 20260503031505 | 25 | 307 | 1.6 | 4.8 | 0.00 | 0.00 | 0.00 | 81 | 1011.9 |
| 20260503031004 | 25 | 282 | 3.2 | 9.7 | 0.00 | 0.00 | 0.00 | 80 | 1011.9 |
| 20260503030504 | 25 | 285 | 3.2 | 4.8 | 0.00 | 0.00 | 0.00 | 80 | 1011.9 |
| 20260503030005 | 25 | 289 | 0.0 | 4.8 | 0.00 | 0.00 | 0.00 | 80 | 1011.9 |
| 20260503025504 | 25 | 290 | 3.2 | 9.7 | 0.00 | 0.00 | 0.00 | 79 | 1011.9 |
| 20260503025004 | 26 | 299 | 3.2 | 8.0 | 0.00 | 0.00 | 0.00 | 79 | 1011.8 |
| 20260503024504 | 26 | 293 | 4.8 | 11.3 | 0.00 | 0.00 | 0.00 | 79 | 1011.8 |
| 20260503024004 | 26 | 292 | 3.2 | 9.7 | 0.00 | 0.00 | 0.00 | 78 | 1011.7 |
| 20260503023505 | 26 | 296 | 3.2 | 4.8 | 0.00 | 0.00 | 0.00 | 77 | 1011.8 |
| 20260503022504 | 26 | 292 | 3.2 | 4.8 | 0.00 | 0.00 | 0.00 | 76 | 1011.8 |
| 20260503022004 | 26 | 294 | 3.2 | 4.8 | 0.00 | 0.00 | 0.00 | 75 | 1011.8 |
| 20260503021004 | 26 | 279 | 6.4 | 11.3 | 0.00 | 0.00 | 0.00 | 74 | 1011.6 |
| 20260503020504 | 26 | 280 | 3.2 | 9.7 | 0.00 | 0.00 | 0.00 | 74 | 1011.5 |
| 20260503020004 | 26 | 299 | 3.2 | 9.7 | 0.00 | 0.00 | 0.00 | 73 | 1011.5 |
| 20260503015504 | 27 | 273 | 4.8 | 9.7 | 0.00 | 0.00 | 0.00 | 73 | 1011.6 |
| 20260503015004 | 27 | 287 | 3.2 | 9.7 | 0.00 | 0.00 | 0.00 | 72 | 1011.6 |
| 20260503014504 | 27 | 286 | 3.2 | 9.7 | 0.00 | 0.00 | 0.00 | 72 | 1011.6 |
| 20260503014005 | 27 | 281 | 4.8 | 12.9 | 0.00 | 0.00 | 0.00 | 71 | 1011.5 |
| 20260503013504 | 27 | 296 | 6.4 | 14.5 | 0.00 | 0.00 | 0.00 | 71 | 1011.5 |
| 20260503013005 | 27 | 281 | 4.8 | 11.3 | 0.00 | 0.00 | 0.00 | 70 | 1011.5 |
| 20260503012504 | 27 | 300 | 8.0 | 19.3 | 0.00 | 0.00 | 0.00 | 69 | 1011.4 |
| 20260503011504 | 27 | 294 | 4.8 | 11.3 | 0.00 | 0.00 | 0.00 | 68 | 1011.3 |
| 20260503010505 | 27 | 285 | 4.8 | 11.3 | 0.00 | 0.00 | 0.00 | 66 | 1011.0 |
| 20260503010004 | 27 | 298 | 3.2 | 14.5 | 0.00 | 0.00 | 0.00 | 66 | 1011.0 |
| 20260503005004 | 27 | 304 | 4.8 | 14.5 | 0.00 | 0.00 | 0.00 | 64 | 1010.8 |
| 20260503004504 | 27 | 284 | 4.8 | 14.5 | 0.00 | 0.00 | 0.00 | 64 | 1010.7 |
| 20260503004004 | 27 | 286 | 4.8 | 12.9 | 0.00 | 0.00 | 0.00 | 63 | 1010.8 |
| 20260503003505 | 27 | 282 | 6.4 | 14.5 | 0.00 | 0.00 | 0.00 | 62 | 1010.7 |
| 20260503003004 | 28 | 297 | 4.8 | 16.1 | 0.00 | 0.00 | 0.00 | 62 | 1010.5 |
| 20260503002504 | 28 | 283 | 8.0 | 16.1 | 0.00 | 0.00 | 0.00 | 61 | 1010.5 |
| 20260503002004 | 28 | 285 | 6.4 | 12.9 | 0.00 | 0.00 | 0.00 | 60 | 1010.4 |
| 20260503001504 | 28 | 283 | 9.7 | 19.3 | 0.00 | 0.00 | 0.00 | 59 | 1010.4 |
| 20260503000504 | 28 | 290 | 9.7 | 19.3 | 0.00 | 0.00 | 0.00 | 60 | 1010.3 |
| 20260503000004 | 28 | 270 | 3.2 | 9.7 | 0.00 | 0.00 | 0.00 | 61 | 1010.1 |
| 20260502235505 | 28 | 313 | 4.8 | 9.7 | 0.00 | 0.00 | 0.00 | 61 | 1010.0 |
| 20260502235005 | 28 | 280 | 6.4 | 14.5 | 0.00 | 0.00 | 0.00 | 59 | 1009.9 |
| 20260502234504 | 28 | 263 | 4.8 | 11.3 | 0.00 | 0.00 | 0.00 | 59 | 1009.8 |
| 20260502234004 | 28 | 262 | 4.8 | 8.0 | 0.00 | 0.00 | 0.00 | 58 | 1009.7 |
| 20260502233504 | 28 | 261 | 4.8 | 16.1 | 0.00 | 0.00 | 0.00 | 57 | 1009.7 |
| 20260502233004 | 29 | 266 | 8.0 | 19.3 | 0.00 | 0.00 | 0.00 | 56 | 1009.5 |
| 20260502232504 | 29 | 295 | 4.8 | 12.9 | 0.00 | 0.00 | 0.00 | 56 | 1009.5 |
| 20260502232005 | 29 | 278 | 8.0 | 14.5 | 0.00 | 0.00 | 0.00 | 55 | 1009.4 |
| 20260502231504 | 30 | 245 | 4.8 | 16.1 | 0.00 | 0.00 | 0.00 | 55 | 1009.3 |
| 20260502231004 | 30 | 279 | 8.0 | 16.1 | 0.00 | 0.00 | 0.00 | 53 | 1009.2 |
| 20260502230504 | 30 | 284 | 8.0 | 19.3 | 0.00 | 0.00 | 0.00 | 52 | 1009.0 |
| 20260502230004 | 30 | 260 | 9.7 | 19.3 | 0.00 | 0.00 | 0.00 | 53 | 1008.9 |
| 20260502225504 | 30 | 255 | 9.7 | 19.3 | 0.00 | 0.00 | 0.00 | 52 | 1008.8 |
| 20260502225005 | 30 | 292 | 8.0 | 14.5 | 0.00 | 0.00 | 0.00 | 53 | 1008.9 |
| 20260502224504 | 31 | 273 | 9.7 | 20.9 | 0.00 | 0.00 | 0.00 | 54 | 1008.9 |
| 20260502224004 | 31 | 239 | 4.8 | 19.3 | 0.00 | 0.00 | 0.00 | 52 | 1008.7 |
| 20260502223504 | 31 | 248 | 8.0 | 20.9 | 0.00 | 0.00 | 0.00 | 53 | 1008.7 |
| 20260502223004 | 31 | 240 | 9.7 | 19.3 | 0.00 | 0.00 | 0.00 | 51 | 1008.7 |
| 20260502222504 | 31 | 237 | 6.4 | 16.1 | 0.00 | 0.00 | 0.00 | 52 | 1008.7 |
| 20260502222005 | 31 | 272 | 8.0 | 20.9 | 0.00 | 0.00 | 0.00 | 53 | 1008.8 |
| 20260502221504 | 31 | 258 | 4.8 | 19.3 | 0.00 | 0.00 | 0.00 | 53 | 1008.8 |
| 20260502221004 | 31 | 241 | 9.7 | 19.3 | 0.00 | 0.00 | 0.00 | 53 | 1008.7 |
| 20260502220504 | 32 | 275 | 6.4 | 16.1 | 0.00 | 0.00 | 0.00 | 54 | 1008.7 |
| 20260502220004 | 32 | 293 | 9.7 | 20.9 | 0.00 | 0.00 | 0.00 | 52 | 1008.7 |
| 20260502215005 | 32 | 251 | 8.0 | 19.3 | 0.00 | 0.00 | 0.00 | 53 | 1008.6 |
| 20260502213504 | 32 | 288 | 6.4 | 24.1 | 0.00 | 0.00 | 0.00 | 53 | 1008.4 |
| 20260502213006 | 32 | 251 | 9.7 | 19.3 | 0.00 | 0.00 | 0.00 | 53 | 1008.3 |
| 20260502212504 | 32 | 271 | 12.9 | 20.9 | 0.00 | 0.00 | 0.00 | 51 | 1008.3 |
| 20260502211504 | 33 | 270 | 9.7 | 19.3 | 0.00 | 0.00 | 0.00 | 51 | 1008.3 |
| 20260502211004 | 33 | 269 | 4.8 | 19.3 | 0.00 | 0.00 | 0.00 | 48 | 1008.2 |
| 20260502210504 | 33 | 283 | 6.4 | 14.5 | 0.00 | 0.00 | 0.00 | 49 | 1008.2 |
| 20260502205504 | 33 | 232 | 8.0 | 16.1 | 0.00 | 0.00 | 0.00 | 48 | 1008.1 |
| 20260502205004 | 33 | 299 | 8.0 | 19.3 | 0.00 | 0.00 | 0.00 | 49 | 1008.0 |
| 20260502204504 | 33 | 224 | 8.0 | 19.3 | 0.00 | 0.00 | 0.00 | 48 | 1008.1 |
| 20260502203504 | 33 | 273 | 9.7 | 19.3 | 0.00 | 0.00 | 0.00 | 43 | 1008.1 |
| 20260502203004 | 33 | 288 | 9.7 | 19.3 | 0.00 | 0.00 | 0.00 | 45 | 1008.1 |
| 20260502202504 | 33 | 272 | 8.0 | 19.3 | 0.00 | 0.00 | 0.00 | 45 | 1008.2 |
| 20260502201504 | 33 | 243 | 9.7 | 20.9 | 0.00 | 0.00 | 0.00 | 47 | 1008.4 |
| 20260502201004 | 33 | 300 | 8.0 | 19.3 | 0.00 | 0.00 | 0.00 | 45 | 1008.5 |
| 20260502200504 | 33 | 252 | 8.0 | 19.3 | 0.00 | 0.00 | 0.00 | 45 | 1008.6 |
| 20260502195005 | 33 | 299 | 14.5 | 20.9 | 0.00 | 0.00 | 0.00 | 47 | 1008.8 |
| 20260502194504 | 33 | 279 | 9.7 | 33.8 | 0.00 | 0.00 | 0.00 | 48 | 1008.7 |
| 20260502194004 | 33 | 230 | 8.0 | 19.3 | 0.00 | 0.00 | 0.00 | 49 | 1008.8 |
| 20260502193504 | 33 | 292 | 8.0 | 20.9 | 0.00 | 0.00 | 0.00 | 49 | 1008.9 |
| 20260502193004 | 33 | 283 | 9.7 | 20.9 | 0.00 | 0.00 | 0.00 | 46 | 1009.0 |
| 20260502192505 | 34 | 282 | 14.5 | 25.7 | 0.00 | 0.00 | 0.00 | 46 | 1009.1 |
| 20260502192004 | 34 | 281 | 9.7 | 24.1 | 0.00 | 0.00 | 0.00 | 50 | 1009.0 |
| 20260502191004 | 33 | 262 | 9.7 | 20.9 | 0.00 | 0.00 | 0.00 | 52 | 1009.1 |
| 20260502190004 | 33 | 304 | 9.7 | 20.9 | 0.00 | 0.00 | 0.00 | 55 | 1009.2 |
| 20260502185004 | 33 | 286 | 9.7 | 19.3 | 0.00 | 0.00 | 0.00 | 52 | 1009.2 |
| 20260502184504 | 33 | 251 | 4.8 | 16.1 | 0.00 | 0.00 | 0.00 | 54 | 1009.2 |
| 20260502184004 | 33 | 230 | 9.7 | 22.5 | 0.00 | 0.00 | 0.00 | 53 | 1009.2 |
| 20260502183504 | 32 | 276 | 11.3 | 20.9 | 0.00 | 0.00 | 0.00 | 54 | 1009.2 |
| 20260502182504 | 33 | 258 | 11.3 | 20.9 | 0.00 | 0.00 | 0.00 | 59 | 1009.3 |
| 20260502181504 | 33 | 251 | 11.3 | 20.9 | 0.00 | 0.00 | 0.00 | 54 | 1009.5 |
| 20260502181004 | 33 | 252 | 14.5 | 25.7 | 0.00 | 0.00 | 0.00 | 56 | 1009.4 |
| 20260502180504 | 33 | 236 | 11.3 | 29.0 | 0.00 | 0.00 | 0.00 | 55 | 1009.5 |
| 20260502170504 | 33 | 279 | 16.1 | 25.7 | 0.00 | 0.00 | 0.00 | 60 | 1009.7 |
| 20260502164004 | 32 | 218 | 14.5 | 25.7 | 0.00 | 0.00 | 0.00 | 66 | 1010.0 |
| 20260502163505 | 31 | 290 | 9.7 | 24.1 | 0.00 | 0.00 | 0.00 | 65 | 1010.0 |
| 20260502163004 | 32 | 269 | 6.4 | 25.7 | 0.00 | 0.00 | 0.00 | 64 | 1010.1 |
| 20260502162004 | 31 | 264 | 8.0 | 19.3 | 0.00 | 0.00 | 0.00 | 63 | 1010.1 |
| 20260502161504 | 32 | 297 | 4.8 | 19.3 | 0.00 | 0.00 | 0.00 | 65 | 1010.1 |
| 20260502161004 | 32 | 266 | 4.8 | 14.5 | 0.00 | 0.00 | 0.00 | 67 | 1010.1 |
| 20260502160504 | 32 | 241 | 4.8 | 16.1 | 0.00 | 0.00 | 0.00 | 64 | 1010.1 |
| 20260502152003 | 31 | 236 | 9.7 | 20.9 | 0.00 | 0.00 | 0.00 | 68 | 1010.3 |
| 20260502151504 | 31 | 217 | 9.7 | 24.1 | 0.00 | 0.00 | 0.00 | 69 | 1010.4 |
| 20260502151004 | 31 | 246 | 9.7 | 24.1 | 0.00 | 0.00 | 0.00 | 70 | 1010.3 |
| 20260502150504 | 31 | 241 | 8.0 | 22.5 | 0.00 | 0.00 | 0.00 | 70 | 1010.2 |
| 20260502130504 | 28 | 253 | 4.8 | 14.5 | 0.00 | 0.00 | 0.00 | 80 | 1010.1 |
| 20260502123504 | 27 | 219 | 4.8 | 12.9 | 0.00 | 0.00 | 0.00 | 83 | 1010.1 |
| 20260502122504 | 27 | 231 | 3.2 | 8.0 | 0.00 | 0.00 | 0.00 | 85 | 1010.1 |
| 20260502122004 | 27 | 228 | 3.2 | 8.0 | 0.00 | 0.00 | 0.00 | 87 | 1010.1 |
| 20260502121504 | 26 | 214 | 1.6 | 9.7 | 0.00 | 0.00 | 0.00 | 88 | 1010.1 |
| 20260502121004 | 26 | 243 | 1.6 | 4.8 | 0.00 | 0.00 | 0.00 | 89 | 1010.0 |
| 20260502120504 | 25 | 160 | 1.6 | 8.0 | 0.00 | 0.00 | 0.00 | 91 | 1009.9 |
| 20260502115504 | 25 | 216 | 1.6 | 4.8 | 0.00 | 0.00 | 0.00 | 92 | 1009.9 |
| 20260502115004 | 25 | 232 | 3.2 | 11.3 | 0.00 | 0.00 | 0.00 | 92 | 1009.8 |
| 20260502114504 | 25 | 179 | 0.0 | 4.8 | 0.00 | 0.00 | 0.00 | 93 | 1009.9 |
| 20260502114003 | 25 | 205 | 0.0 | 3.2 | 0.00 | 0.00 | 0.00 | 93 | 1009.9 |
| 20260502113504 | 24 | 270 | 1.6 | 4.8 | 0.00 | 0.00 | 0.00 | 93 | 1009.8 |
| 20260502113004 | 24 | 137 | 0.0 | 3.2 | 0.00 | 0.00 | 0.00 | 94 | 1009.7 |
| 20260502112504 | 24 | 218 | 1.6 | 9.7 | 0.00 | 0.00 | 0.00 | 94 | 1009.7 |
| 20260502112004 | 24 | 215 | 1.6 | 8.0 | 0.00 | 0.00 | 0.00 | 94 | 1009.8 |
| 20260502111504 | 23 | 222 | 1.6 | 4.8 | 0.00 | 0.00 | 0.00 | 94 | 1009.8 |
| 20260502111004 | 23 | 240 | 1.6 | 8.0 | 0.00 | 0.00 | 0.00 | 94 | 1009.8 |
| 20260502110504 | 23 | 208 | 1.6 | 8.0 | 0.00 | 0.00 | 0.00 | 94 | 1009.9 |
| 20260502110004 | 23 | 197 | 1.6 | 3.2 | 0.00 | 0.00 | 0.00 | 94 | 1009.8 |
| 20260502105504 | 23 | 210 | 1.6 | 4.8 | 0.00 | 0.00 | 0.00 | 94 | 1009.7 |
| 20260502104504 | 23 | 202 | 1.6 | 3.2 | 0.00 | 0.00 | 0.00 | 94 | 1009.6 |
| 20260502104004 | 23 | 209 | 1.6 | 4.8 | 0.00 | 0.00 | 0.00 | 94 | 1009.7 |
| 20260502103504 | 23 | 220 | 0.0 | 4.8 | 0.00 | 0.00 | 0.00 | 94 | 1009.8 |
| 20260502103003 | 23 | 175 | 1.6 | 4.8 | 0.00 | 0.00 | 0.00 | 94 | 1009.8 |
| 20260502102504 | 23 | 230 | 0.0 | 3.2 | 0.00 | 0.00 | 0.00 | 94 | 1009.7 |
| 20260502102004 | 23 | 225 | 0.0 | 4.8 | 0.00 | 0.00 | 0.00 | 94 | 1009.8 |
| 20260502101505 | 23 | 143 | 0.0 | 1.6 | 0.00 | 0.00 | 0.00 | 94 | 1009.8 |
| 20260502101004 | 23 | 136 | 0.0 | 1.6 | 0.00 | 0.00 | 0.00 | 94 | 1009.8 |
| 20260502100504 | 23 | 209 | 0.0 | 1.6 | 0.00 | 0.00 | 0.00 | 94 | 1009.8 |
| 20260502091504 | 23 | 208 | 0.0 | 4.8 | 0.00 | 0.00 | 0.00 | 94 | 1009.6 |
| 20260502071505 | 22 | 246 | 0.0 | 0.0 | 0.00 | 0.00 | 0.00 | 94 | 1009.6 |
| 20260502071005 | 22 | 246 | 0.0 | 0.0 | 0.00 | 0.00 | 0.00 | 93 | 1009.7 |
| 20260502070506 | 22 | 246 | 0.0 | 0.0 | 0.00 | 0.00 | 0.00 | 93 | 1009.7 |
| 20260502070005 | 22 | 246 | 0.0 | 0.0 | 0.00 | 0.00 | 0.00 | 93 | 1009.6 |
| 20260502065505 | 22 | 246 | 0.0 | 0.0 | 0.00 | 0.00 | 0.00 | 93 | 1009.6 |
| 20260502065005 | 22 | 246 | 0.0 | 0.0 | 0.00 | 0.00 | 0.00 | 93 | 1009.6 |
| 20260502064505 | 22 | 246 | 0.0 | 0.0 | 0.00 | 0.00 | 0.00 | 93 | 1009.7 |
| 20260502064005 | 22 | 246 | 0.0 | 0.0 | 0.00 | 0.00 | 0.00 | 93 | 1009.7 |
| 20260502063505 | 22 | 246 | 0.0 | 0.0 | 0.00 | 0.00 | 0.00 | 93 | 1009.8 |
| 20260502063005 | 22 | 246 | 0.0 | 0.0 | 0.00 | 0.00 | 0.00 | 93 | 1009.8 |
| 20260502062505 | 22 | 246 | 0.0 | 0.0 | 0.00 | 0.00 | 0.00 | 93 | 1009.8 |
| 20260502062006 | 22 | 246 | 0.0 | 0.0 | 0.00 | 0.00 | 0.00 | 93 | 1009.8 |
| 20260502061005 | 22 | 246 | 0.0 | 0.0 | 0.00 | 0.00 | 0.00 | 93 | 1009.9 |
| 20260502060006 | 22 | 246 | 0.0 | 0.0 | 0.00 | 0.00 | 0.00 | 93 | 1009.9 |
| 20260502055505 | 22 | 246 | 0.0 | 0.0 | 0.00 | 0.00 | 0.00 | 92 | 1009.9 |
| 20260502055006 | 22 | 246 | 0.0 | 0.0 | 0.00 | 0.00 | 0.00 | 93 | 1009.8 |
| 20260502054506 | 22 | 246 | 0.0 | 0.0 | 0.00 | 0.00 | 0.00 | 92 | 1009.9 |
| 20260502054005 | 22 | 246 | 0.0 | 0.0 | 0.00 | 0.00 | 0.00 | 92 | 1009.9 |
| 20260502053506 | 22 | 246 | 0.0 | 0.0 | 0.00 | 0.00 | 0.00 | 93 | 1009.9 |
| 20260502053005 | 22 | 246 | 0.0 | 0.0 | 0.00 | 0.00 | 0.00 | 92 | 1010.0 |
| 20260502052505 | 22 | 246 | 0.0 | 0.0 | 0.00 | 0.00 | 0.00 | 92 | 1010.0 |
| 20260502052005 | 22 | 246 | 0.0 | 0.0 | 0.00 | 0.00 | 0.00 | 92 | 1010.0 |
| 20260502051505 | 22 | 246 | 0.0 | 0.0 | 0.00 | 0.00 | 0.00 | 92 | 1010.1 |
| 20260502051005 | 22 | 246 | 0.0 | 0.0 | 0.00 | 0.00 | 0.00 | 92 | 1010.1 |
| 20260502050506 | 22 | 246 | 0.0 | 0.0 | 0.00 | 0.00 | 0.00 | 92 | 1010.2 |
| 20260502050005 | 22 | 246 | 0.0 | 0.0 | 0.00 | 0.00 | 0.00 | 92 | 1010.3 |
| 20260502044505 | 22 | 246 | 0.0 | 0.0 | 0.00 | 0.00 | 0.00 | 91 | 1010.6 |
| 20260502044005 | 22 | 246 | 0.0 | 0.0 | 0.00 | 0.00 | 0.00 | 91 | 1010.5 |
| 20260502043505 | 22 | 246 | 0.0 | 0.0 | 0.00 | 0.00 | 0.00 | 91 | 1010.6 |
| 20260502043006 | 22 | 246 | 0.0 | 1.6 | 0.00 | 0.00 | 0.00 | 91 | 1010.6 |
| 20260502042505 | 22 | 246 | 0.0 | 0.0 | 0.00 | 0.00 | 0.00 | 91 | 1010.7 |
| 20260502042005 | 22 | 246 | 0.0 | 1.6 | 0.00 | 0.00 | 0.00 | 91 | 1010.7 |
| 20260502041505 | 22 | 246 | 0.0 | 0.0 | 0.00 | 0.00 | 0.00 | 91 | 1010.6 |
| 20260502040506 | 22 | 246 | 0.0 | 0.0 | 0.00 | 0.00 | 0.00 | 90 | 1010.6 |
| 20260502040005 | 22 | 246 | 0.0 | 0.0 | 0.00 | 0.00 | 0.00 | 91 | 1010.6 |
| 20260502035505 | 22 | 246 | 0.0 | 0.0 | 0.00 | 0.00 | 0.00 | 90 | 1010.7 |
| 20260502035005 | 22 | 246 | 0.0 | 0.0 | 0.00 | 0.00 | 0.00 | 90 | 1010.7 |
| 20260502034505 | 23 | 246 | 0.0 | 0.0 | 0.00 | 0.00 | 0.00 | 90 | 1010.6 |